Time;durP1;ratioP1;P1;durP2;ratioP2;P2;SDS_P1;SDS_P2;PMS_P1;PMS_P2;Temp;Humidity;BMP_temperature;BMP_pressure;BME280_temperature;BME280_humidity;BME280_pressure;Samples;Min_cycle;Max_cycle;Signal;HPM_P1;HPM_P2
2022/03/10 00:01:26;;;;;;;4.50;3.07;;;;;;;;;;20816435;28;20213;-82
2022/03/10 00:11:28;;;;;;;4.97;3.20;;;;;;;;;;20874485;28;20287;-82
2022/03/10 00:21:29;;;;;;;4.23;2.40;;;;;;;;;;20801465;28;20214;-81
2022/03/10 00:31:31;;;;;;;5.43;3.53;;;;;;;;;;20816293;28;20604;-82
2022/03/10 00:41:33;;;;;;;3.57;2.57;;;;;;;;;;20798864;28;20237;-82
2022/03/10 00:51:35;;;;;;;3.73;2.30;;;;;;;;;;20766625;28;20272;-82
2022/03/10 01:01:36;;;;;;;5.07;3.87;;;;;;;;;;20797322;28;20265;-82
2022/03/10 01:11:38;;;;;;;7.13;5.23;;;;;;;;;;20764401;28;20281;-82
2022/03/10 01:21:41;;;;;;;5.30;3.60;;;;;;;;;;20715840;28;20227;-82
2022/03/10 01:31:43;;;;;;;4.53;2.97;;;;;;;;;;20730591;28;20227;-83
2022/03/10 01:41:45;;;;;;;3.37;2.20;;;;;;;;;;20763003;28;20218;-83
2022/03/10 01:51:47;;;;;;;3.03;2.00;;;;;;;;;;20777489;28;20226;-82
2022/03/10 02:01:49;;;;;;;2.60;2.03;;;;;;;;;;20793297;28;20211;-82
2022/03/10 02:11:51;;;;;;;2.73;1.93;;;;;;;;;;20792311;28;20230;-82
2022/03/10 02:21:52;;;;;;;4.53;2.17;;;;;;;;;;20759971;28;20270;-82
2022/03/10 02:31:54;;;;;;;4.10;2.17;;;;;;;;;;20792161;28;20231;-83
2022/03/10 02:41:57;;;;;;;2.47;1.83;;;;;;;;;;20791096;28;20279;-83
2022/03/10 02:51:59;;;;;;;5.30;2.53;;;;;;;;;;20792053;28;20356;-83
2022/03/10 03:02:02;;;;;;;3.00;2.07;;;;;;;;;;20812075;28;20280;-81
2022/03/10 03:12:03;;;;;;;2.73;2.20;;;;;;;;;;20850678;28;20206;-82
2022/03/10 03:22:05;;;;;;;2.63;1.70;;;;;;;;;;20805969;28;20276;-82
2022/03/10 03:32:07;;;;;;;2.80;1.90;;;;;;;;;;20788780;28;20753;-82
2022/03/10 03:42:09;;;;;;;2.50;1.53;;;;;;;;;;20784903;28;20249;-81
2022/03/10 03:52:11;;;;;;;3.83;1.80;;;;;;;;;;20737832;28;20242;-82
2022/03/10 04:02:12;;;;;;;3.63;2.40;;;;;;;;;;20720165;28;20215;-81
2022/03/10 04:12:14;;;;;;;2.77;2.27;;;;;;;;;;20719781;28;20361;-81
2022/03/10 04:22:16;;;;;;;2.47;2.00;;;;;;;;;;20735167;28;20207;-81
2022/03/10 04:32:17;;;;;;;3.57;2.10;;;;;;;;;;20751347;28;20289;-82
2022/03/10 04:42:19;;;;;;;4.37;1.90;;;;;;;;;;20702363;28;20234;-82
2022/03/10 04:52:21;;;;;;;1.93;1.73;;;;;;;;;;20769620;28;20219;-83
2022/03/10 05:02:22;;;;;;;1.33;1.20;;;;;;;;;;20792654;28;20214;-83
2022/03/10 05:12:24;;;;;;;5.20;2.03;;;;;;;;;;20864333;28;20230;-81
2022/03/10 05:22:45;;;;;;;2.63;1.50;;;2.20;99.90;;;;;;20796734;28;20211;-81
2022/03/10 05:32:47;;;;;;;4.50;2.10;;;;;;;;;;20831979;28;20311;-80
2022/03/10 05:42:50;;;;;;;3.53;1.47;;;;;;;;;;20778944;28;20568;-81
2022/03/10 05:52:52;;;;;;;3.90;2.37;;;;;;;;;;20786825;28;20237;-80
2022/03/10 06:02:53;;;;;;;2.90;1.87;;;;;;;;;;20875998;28;20197;-80
2022/03/10 06:12:55;;;;;;;2.40;2.10;;;;;;;;;;20812046;28;20222;-81
2022/03/10 06:22:57;;;;;;;2.97;2.17;;;;;;;;;;20775828;28;20583;-81
2022/03/10 06:32:59;;;;;;;3.73;2.13;;;;;;;;;;20834903;28;20222;-82
2022/03/10 06:43:01;;;;;;;3.13;2.47;;;;;;;;;;20817899;28;20247;-81
2022/03/10 06:53:03;;;;;;;3.53;2.20;;;;;;;;;;20781065;28;20234;-81
2022/03/10 07:03:04;;;;;;;3.57;2.43;;;2.30;99.90;;;;;;20821006;28;20573;-81
2022/03/10 07:13:07;;;;;;;4.30;2.33;;;;;;;;;;20820055;28;20218;-82
2022/03/10 07:23:09;;;;;;;3.90;3.00;;;;;;;;;;20837321;28;20211;-83
2022/03/10 07:33:11;;;;;;;3.60;3.03;;;;;;;;;;20769286;28;20238;-82
2022/03/10 07:43:44;;;;;;;5.20;3.17;;;;;;;;;;20805838;28;20226;-87
2022/03/10 08:05:50;;;;;;;4.47;3.27;;;;;;;;;;21022849;22;20291;-66
2022/03/10 08:15:55;;;;;;;3.57;2.27;;;5.20;99.90;;;;;;20963044;28;20229;-66
2022/03/10 08:25:57;;;;;;;4.93;3.20;;;;;;;;;;20920568;28;20271;-66
2022/03/10 08:35:59;;;;;;;4.27;2.53;;;6.00;99.90;;;;;;20963640;28;20225;-66
2022/03/10 08:46:01;;;;;;;5.37;2.97;;;;;;;;;;20976825;28;20648;-66
2022/03/10 08:56:04;;;;;;;5.00;3.07;;;6.50;99.90;;;;;;20959059;28;20217;-66
2022/03/10 09:06:07;;;;;;;4.13;2.80;;;;;;;;;;20955790;28;20237;-66
2022/03/10 09:16:09;;;;;;;4.73;2.93;;;;;;;;;;20940520;28;20732;-66
2022/03/10 09:26:11;;;;;;;5.37;2.90;;;;;;;;;;20885157;28;20244;-65
2022/03/10 09:36:13;;;;;;;3.70;2.67;;;;;;;;;;20906001;28;20572;-65
2022/03/10 09:46:15;;;;;;;4.33;2.63;;;8.60;99.90;;;;;;20939471;28;20205;-66
2022/03/10 09:56:20;;;;;;;7.40;2.57;;;8.90;99.90;;;;;;20922313;28;20217;-65
2022/03/10 10:06:22;;;;;;;5.73;2.47;;;;;;;;;;20922307;28;20267;-66
2022/03/10 10:16:24;;;;;;;3.63;2.37;;;;;;;;;;20855068;28;20246;-65
2022/03/10 10:26:29;;;;;;;4.13;2.57;;;;;;;;;;20885248;28;20206;-65
2022/03/10 10:36:37;;;;;;;4.50;2.43;;;;;;;;;;20952694;28;20259;-66
2022/03/10 10:46:40;;;;;;;3.00;1.87;;;10.60;99.90;;;;;;20921249;28;20592;-66
2022/03/10 10:56:55;;;;;;;4.80;2.13;;;;;;;;;;21063108;22;20265;-63
2022/03/10 11:06:57;;;;;;;4.63;2.17;;;11.50;99.90;;;;;;21007517;28;20918;-64
2022/03/10 11:16:59;;;;;;;2.23;1.50;;;;;;;;;;21009222;28;20221;-64
2022/03/10 11:27:35;;;;;;;1.53;0.93;;;11.30;99.90;;;;;;21013013;28;20201;-64
2022/03/10 11:37:37;;;;;;;1.37;1.07;;;;;;;;;;20920293;28;20224;-64
2022/03/10 11:47:40;;;;;;;2.23;1.30;;;;;;;;;;21033158;28;20231;-64
2022/03/10 11:57:43;;;;;;;1.77;0.90;;;;;;;;;;21033759;28;20274;-64
2022/03/10 12:07:50;;;;;;;1.47;0.90;;;;;;;;;;21036172;28;20251;-63
2022/03/10 12:17:54;;;;;;;0.30;0.23;;;;;;;;;;21030989;28;20278;-63
2022/03/10 12:27:57;;;;;;;2.17;0.80;;;12.80;99.90;;;;;;21030042;28;20254;-63
2022/03/10 12:37:59;;;;;;;1.83;1.07;;;;;;;;;;21012559;28;20220;-63
2022/03/10 12:48:25;;;;;;;2.20;1.00;;;13.10;99.90;;;;;;21045637;28;20220;-63
2022/03/10 12:58:28;;;;;;;0.97;0.53;;;;;;;;;;21027613;28;20575;-63
2022/03/10 13:08:31;;;;;;;0.30;0.30;;;;;;;;;;21043326;28;20212;-63
2022/03/10 13:18:43;;;;;;;1.13;0.77;;;13.80;99.90;;;;;;21025996;28;20687;-63
2022/03/10 13:28:47;;;;;;;2.00;1.13;;;;;;;;;;21008635;28;20239;-63
2022/03/10 13:38:49;;;;;;;1.37;0.70;;;;;;;;;;21040992;28;20286;-63
2022/03/10 13:48:53;;;;;;;2.20;1.27;;;13.90;99.90;;;;;;21023257;28;20575;-64
2022/03/10 13:58:55;;;;;;;2.67;1.10;;;14.00;99.50;;;;;;21039973;28;20270;-64
2022/03/10 14:08:57;;;;;;;1.00;0.57;;;13.80;94.10;;;;;;21038971;28;20212;-64
2022/03/10 14:19:02;;;;;;;1.30;0.60;;;;;;;;;;21053437;28;20251;-64
2022/03/10 14:29:04;;;;;;;1.40;0.80;;;;;;;;;;21020908;28;20576;-64
2022/03/10 14:39:06;;;;;;;5.23;1.10;;;;;;;;;;21021523;28;20687;-64
2022/03/10 14:49:08;;;;;;;1.23;0.80;;;;;;;;;;21020406;28;20765;-64
2022/03/10 14:59:10;;;;;;;1.47;0.97;;;13.60;99.90;;;;;;21028343;28;20279;-64
2022/03/10 15:09:13;;;;;;;3.33;1.63;;;;;;;;;;21052337;28;20220;-64
2022/03/10 15:19:16;;;;;;;1.67;1.07;;;;;;;;;;21034526;28;20212;-64
2022/03/10 15:29:17;;;;;;;1.87;0.93;;;;;;;;;;21034001;28;20757;-64
2022/03/10 15:39:19;;;;;;;1.70;0.87;;;;;;;;;;21033458;28;20292;-63
2022/03/10 15:49:22;;;;;;;1.97;1.10;;;;;;;;;;21065020;28;20562;-63
2022/03/10 15:59:24;;;;;;;1.63;0.70;;;;;;;;;;21042019;28;20267;-63
2022/03/10 16:09:27;;;;;;;4.07;1.00;;;;;;;;;;21030862;28;20232;-63
2022/03/10 16:19:28;;;;;;;2.90;1.23;;;;;;;;;;21047286;28;20258;-63
2022/03/10 16:29:30;;;;;;;2.63;1.20;;;;;;;;;;21029369;28;20217;-64
2022/03/10 16:39:32;;;;;;;2.53;0.90;;;;;;;;;;21020977;28;20267;-63
2022/03/10 16:59:47;;;;;;;4.10;1.13;;;;;;;;;;20866997;28;20283;-67
2022/03/10 17:09:49;;;;;;;1.63;0.73;;;;;;;;;;20857917;28;20214;-67
2022/03/10 17:19:52;;;;;;;1.10;0.67;;;;;;;;;;20845746;28;20279;-67
2022/03/10 17:29:54;;;;;;;2.10;1.30;;;;;;;;;;20842867;28;20252;-67
2022/03/10 17:39:56;;;;;;;2.97;1.53;;;;;;;;;;20890425;28;20233;-67
2022/03/10 17:49:58;;;;;;;3.87;1.60;;;;;;;;;;20836561;28;20221;-66
2022/03/10 18:00:00;;;;;;;2.67;1.40;;;;;;;;;;20871261;28;20214;-66
2022/03/10 18:10:03;;;;;;;2.33;1.33;;;11.30;99.90;;;;;;20903588;28;20229;-67
2022/03/10 18:20:05;;;;;;;2.47;1.53;;;11.50;99.90;;;;;;20948200;28;20201;-66
2022/03/10 18:30:08;;;;;;;3.73;1.90;;;11.10;99.90;;;;;;20930627;28;20286;-66
2022/03/10 18:40:11;;;;;;;3.80;1.57;;;;;;;;;;20897743;28;20222;-67
2022/03/10 18:50:13;;;;;;;4.00;1.33;;;;;;;;;;20870329;28;20380;-67
2022/03/10 19:00:16;;;;;;;3.17;1.60;;;11.00;97.90;;;;;;20827078;28;20291;-66
2022/03/10 19:10:18;;;;;;;6.10;1.47;;;;;;;;;;20840150;28;20295;-66
2022/03/10 19:20:20;;;;;;;3.73;1.87;;;;;;;;;;20858207;28;20206;-66
2022/03/10 19:30:23;;;;;;;2.63;1.43;;;;;;;;;;20884544;28;20275;-66
2022/03/10 19:40:25;;;;;;;4.07;2.23;;;;;;;;;;20867416;28;20214;-66
2022/03/10 19:50:27;;;;;;;2.43;1.47;;;;;;;;;;20889294;28;20230;-66
2022/03/10 20:00:30;;;;;;;2.53;1.50;;;;;;;;;;20865280;28;20248;-66
2022/03/10 20:10:32;;;;;;;2.43;1.20;;;;;;;;;;20876506;28;20225;-66
2022/03/10 20:20:36;;;;;;;2.93;1.37;;;;;;;;;;20880626;28;20275;-66
2022/03/10 20:30:37;;;;;;;2.47;1.23;;;;;;;;;;20845811;28;20758;-66
2022/03/10 20:40:39;;;;;;;2.23;1.30;;;;;;;;;;20862343;28;20263;-66
2022/03/10 20:50:41;;;;;;;1.80;1.20;;;;;;;;;;20894123;28;20214;-66
2022/03/10 21:00:43;;;;;;;1.90;1.30;;;9.80;99.90;;;;;;20858812;28;20402;-66
2022/03/10 21:10:46;;;;;;;3.53;1.83;;;9.90;99.90;;;;;;20858125;28;20271;-66
2022/03/10 21:20:48;;;;;;;2.77;1.70;;;;;;;;;;20869233;28;20248;-66
2022/03/10 21:30:50;;;;;;;3.37;1.73;;;;;;;;;;20847518;28;20745;-66
2022/03/10 21:40:52;;;;;;;2.70;1.50;;;;;;;;;;20865152;28;20224;-66
2022/03/10 21:50:54;;;;;;;6.17;1.80;;;;;;;;;;20846456;28;20229;-66
2022/03/10 22:00:56;;;;;;;2.80;1.47;;;;;;;;;;20830664;28;20214;-66
2022/03/10 22:10:58;;;;;;;3.77;1.50;;;;;;;;;;20875588;28;20234;-66
2022/03/10 22:21:00;;;;;;;3.33;2.00;;;8.20;99.90;;;;;;20837660;28;20209;-66
2022/03/10 22:31:02;;;;;;;3.70;1.97;;;;;;;;;;20855553;28;20217;-66
2022/03/10 22:41:05;;;;;;;3.53;1.73;;;;;;;;;;20872201;28;20669;-66
2022/03/10 23:01:27;;;;;;;1.97;1.20;;;;;;;;;;21137754;28;20204;-72
2022/03/10 23:11:29;;;;;;;2.30;1.30;;;;;;;;;;21034523;28;20213;-72
2022/03/10 23:21:31;;;;;;;1.97;1.10;;;;;;;;;;21078071;28;20231;-72
2022/03/10 23:31:33;;;;;;;3.00;1.57;;;;;;;;;;21083846;28;20217;-72
2022/03/10 23:41:35;;;;;;;2.53;1.43;;;;;;;;;;21082892;28;20209;-73
2022/03/10 23:51:37;;;;;;;2.07;1.10;;;;;;;;;;21082821;28;20208;-73
